Le Grand, California
Current Conditions -  °F | °C
As of 10:16 PM on Saturday 22 Nov 2014 (Local Time) from KMCE Reporting Station
Haze Haze  
Wind Chill: 50°   Ceiling: Unl
Heat Index: 50°   Visibility: 2.5mi
Dew Point: 48°   Wind: 6mph
Humidity: 93%   Direction: 310°NW
Pressure: 30.17"   Gusts: NA
Location:  37.23°N, 120.25°W
Report Text: KMCE 230616Z AUTO 31005KT 2 1/2SM BR CLR 10/09 A3017 RMK AO2 T01000089
Loading
Personal Weather Stations






























Interactive Weather Map New forecast layout! Learn more

10-Day Weather Forecast

Advertisements
Track Severe Weather on mobile